sensor_id;sensor_type;location;lat;lon;timestamp;temperature;humidity
9564;DHT22;4820;50.870;4.702;2023-02-18T00:02:10;11.10;99.90
9564;DHT22;4820;50.870;4.702;2023-02-18T00:04:36;11.10;99.90
9564;DHT22;4820;50.870;4.702;2023-02-18T00:07:02;11.10;99.90
9564;DHT22;4820;50.870;4.702;2023-02-18T00:09:27;11.10;99.90
9564;DHT22;4820;50.870;4.702;2023-02-18T00:11:53;11.10;99.90
9564;DHT22;4820;50.870;4.702;2023-02-18T00:14:18;11.00;99.90
9564;DHT22;4820;50.870;4.702;2023-02-18T00:16:44;11.00;99.90
9564;DHT22;4820;50.870;4.702;2023-02-18T00:19:15;11.00;99.90
9564;DHT22;4820;50.870;4.702;2023-02-18T00:21:42;11.00;99.90
9564;DHT22;4820;50.870;4.702;2023-02-18T00:24:08;11.00;99.90
9564;DHT22;4820;50.870;4.702;2023-02-18T00:26:34;11.00;99.90
9564;DHT22;4820;50.870;4.702;2023-02-18T00:29:01;11.00;99.90
9564;DHT22;4820;50.870;4.702;2023-02-18T00:31:29;11.00;99.90
9564;DHT22;4820;50.870;4.702;2023-02-18T00:33:56;11.10;99.90
9564;DHT22;4820;50.870;4.702;2023-02-18T00:36:23;11.00;99.90
9564;DHT22;4820;50.870;4.702;2023-02-18T00:38:52;11.00;99.90
9564;DHT22;4820;50.870;4.702;2023-02-18T00:41:19;11.00;99.90
9564;DHT22;4820;50.870;4.702;2023-02-18T00:43:45;11.00;99.90
9564;DHT22;4820;50.870;4.702;2023-02-18T00:46:11;11.00;99.90
9564;DHT22;4820;50.870;4.702;2023-02-18T00:48:37;11.10;99.90
9564;DHT22;4820;50.870;4.702;2023-02-18T00:51:03;11.10;99.90
9564;DHT22;4820;50.870;4.702;2023-02-18T00:53:30;11.10;99.90
9564;DHT22;4820;50.870;4.702;2023-02-18T00:55:56;11.10;99.90
9564;DHT22;4820;50.870;4.702;2023-02-18T00:58:21;11.10;99.90
9564;DHT22;4820;50.870;4.702;2023-02-18T01:00:47;11.10;99.90
9564;DHT22;4820;50.870;4.702;2023-02-18T01:03:13;11.10;99.90
9564;DHT22;4820;50.870;4.702;2023-02-18T01:05:40;11.10;99.90
9564;DHT22;4820;50.870;4.702;2023-02-18T01:08:07;11.10;99.90
9564;DHT22;4820;50.870;4.702;2023-02-18T01:10:34;11.00;99.90
9564;DHT22;4820;50.870;4.702;2023-02-18T01:13:00;11.00;99.90
9564;DHT22;4820;50.870;4.702;2023-02-18T01:15:28;11.00;99.90
9564;DHT22;4820;50.870;4.702;2023-02-18T01:17:54;11.00;99.90
9564;DHT22;4820;50.870;4.702;2023-02-18T01:20:20;11.00;99.90
9564;DHT22;4820;50.870;4.702;2023-02-18T01:22:46;11.10;99.90
9564;DHT22;4820;50.870;4.702;2023-02-18T01:25:12;11.00;99.90
9564;DHT22;4820;50.870;4.702;2023-02-18T01:27:38;11.00;99.90
9564;DHT22;4820;50.870;4.702;2023-02-18T01:30:04;11.00;99.90
9564;DHT22;4820;50.870;4.702;2023-02-18T01:32:30;11.00;99.90
9564;DHT22;4820;50.870;4.702;2023-02-18T01:34:56;11.10;99.90
9564;DHT22;4820;50.870;4.702;2023-02-18T01:37:21;11.00;99.90
9564;DHT22;4820;50.870;4.702;2023-02-18T01:39:47;11.00;99.90
9564;DHT22;4820;50.870;4.702;2023-02-18T01:42:22;11.00;99.90
9564;DHT22;4820;50.870;4.702;2023-02-18T01:44:48;10.90;99.90
9564;DHT22;4820;50.870;4.702;2023-02-18T01:47:15;10.90;99.90
9564;DHT22;4820;50.870;4.702;2023-02-18T01:49:42;10.90;99.90
9564;DHT22;4820;50.870;4.702;2023-02-18T01:52:20;10.80;99.90
9564;DHT22;4820;50.870;4.702;2023-02-18T01:54:50;10.80;99.90
9564;DHT22;4820;50.870;4.702;2023-02-18T01:57:26;10.80;99.90
9564;DHT22;4820;50.870;4.702;2023-02-18T01:59:59;10.70;99.90
9564;DHT22;4820;50.870;4.702;2023-02-18T02:02:29;10.80;99.90
9564;DHT22;4820;50.870;4.702;2023-02-18T02:04:56;10.80;99.90
9564;DHT22;4820;50.870;4.702;2023-02-18T02:07:24;10.80;99.90
9564;DHT22;4820;50.870;4.702;2023-02-18T02:09:51;10.80;99.90
9564;DHT22;4820;50.870;4.702;2023-02-18T02:37:01;10.80;99.90
9564;DHT22;4820;50.870;4.702;2023-02-18T02:48:28;10.80;99.90
9564;DHT22;4820;50.870;4.702;2023-02-18T02:51:07;10.80;99.90
9564;DHT22;4820;50.870;4.702;2023-02-18T02:53:36;10.80;99.90
9564;DHT22;4820;50.870;4.702;2023-02-18T02:56:04;10.80;99.90
9564;DHT22;4820;50.870;4.702;2023-02-18T02:58:29;10.70;99.90
9564;DHT22;4820;50.870;4.702;2023-02-18T03:01:08;10.80;99.90
9564;DHT22;4820;50.870;4.702;2023-02-18T03:04:08;10.80;99.90
9564;DHT22;4820;50.870;4.702;2023-02-18T03:07:06;10.80;99.90
9564;DHT22;4820;50.870;4.702;2023-02-18T03:12:33;10.80;99.90
9564;DHT22;4820;50.870;4.702;2023-02-18T03:17:57;10.80;99.90
9564;DHT22;4820;50.870;4.702;2023-02-18T03:20:29;10.70;99.90
9564;DHT22;4820;50.870;4.702;2023-02-18T03:22:57;10.70;99.90
9564;DHT22;4820;50.870;4.702;2023-02-18T03:25:24;10.70;99.90
9564;DHT22;4820;50.870;4.702;2023-02-18T03:28:07;10.60;99.90
9564;DHT22;4820;50.870;4.702;2023-02-18T03:33:11;10.60;99.90
9564;DHT22;4820;50.870;4.702;2023-02-18T03:35:40;10.60;99.90
9564;DHT22;4820;50.870;4.702;2023-02-18T03:40:33;10.60;99.90
9564;DHT22;4820;50.870;4.702;2023-02-18T03:42:58;10.60;99.90
9564;DHT22;4820;50.870;4.702;2023-02-18T03:45:25;10.60;99.90
9564;DHT22;4820;50.870;4.702;2023-02-18T03:47:51;10.50;99.90
9564;DHT22;4820;50.870;4.702;2023-02-18T03:50:17;10.60;99.90
9564;DHT22;4820;50.870;4.702;2023-02-18T03:52:43;10.50;99.90
9564;DHT22;4820;50.870;4.702;2023-02-18T03:55:09;10.50;99.90
9564;DHT22;4820;50.870;4.702;2023-02-18T03:57:35;10.50;99.90
9564;DHT22;4820;50.870;4.702;2023-02-18T04:00:00;10.50;99.90
9564;DHT22;4820;50.870;4.702;2023-02-18T04:02:26;10.50;99.90
9564;DHT22;4820;50.870;4.702;2023-02-18T04:04:52;10.60;99.90
9564;DHT22;4820;50.870;4.702;2023-02-18T04:07:17;10.50;99.90
9564;DHT22;4820;50.870;4.702;2023-02-18T04:09:43;10.50;99.90
9564;DHT22;4820;50.870;4.702;2023-02-18T04:12:09;10.50;99.90
9564;DHT22;4820;50.870;4.702;2023-02-18T04:14:34;10.50;99.90
9564;DHT22;4820;50.870;4.702;2023-02-18T04:17:00;10.50;99.90
9564;DHT22;4820;50.870;4.702;2023-02-18T04:19:26;10.50;99.90
9564;DHT22;4820;50.870;4.702;2023-02-18T04:21:51;10.50;99.90
9564;DHT22;4820;50.870;4.702;2023-02-18T04:24:17;10.50;99.90
9564;DHT22;4820;50.870;4.702;2023-02-18T04:26:43;10.50;99.90
9564;DHT22;4820;50.870;4.702;2023-02-18T04:29:08;10.60;99.90
9564;DHT22;4820;50.870;4.702;2023-02-18T04:31:34;10.60;99.90
9564;DHT22;4820;50.870;4.702;2023-02-18T04:33:59;10.60;99.90
9564;DHT22;4820;50.870;4.702;2023-02-18T04:36:25;10.50;99.90
9564;DHT22;4820;50.870;4.702;2023-02-18T04:38:51;10.50;99.90
9564;DHT22;4820;50.870;4.702;2023-02-18T04:41:17;10.40;99.90
9564;DHT22;4820;50.870;4.702;2023-02-18T04:43:42;10.40;99.90
9564;DHT22;4820;50.870;4.702;2023-02-18T04:46:08;10.40;99.90
9564;DHT22;4820;50.870;4.702;2023-02-18T04:48:34;10.40;99.90
9564;DHT22;4820;50.870;4.702;2023-02-18T04:51:00;10.40;99.90
9564;DHT22;4820;50.870;4.702;2023-02-18T04:53:26;10.40;99.90
9564;DHT22;4820;50.870;4.702;2023-02-18T04:55:52;10.40;99.90
9564;DHT22;4820;50.870;4.702;2023-02-18T04:58:18;10.40;99.90
9564;DHT22;4820;50.870;4.702;2023-02-18T05:00:44;10.40;99.90
9564;DHT22;4820;50.870;4.702;2023-02-18T05:03:10;10.40;99.90
9564;DHT22;4820;50.870;4.702;2023-02-18T05:05:35;10.40;99.90
9564;DHT22;4820;50.870;4.702;2023-02-18T05:08:02;10.40;99.90
9564;DHT22;4820;50.870;4.702;2023-02-18T05:10:27;10.40;99.90
9564;DHT22;4820;50.870;4.702;2023-02-18T05:12:53;10.40;99.90
9564;DHT22;4820;50.870;4.702;2023-02-18T05:15:18;10.50;99.90
9564;DHT22;4820;50.870;4.702;2023-02-18T05:17:44;10.40;99.90
9564;DHT22;4820;50.870;4.702;2023-02-18T05:20:11;10.40;99.90
9564;DHT22;4820;50.870;4.702;2023-02-18T05:22:37;10.40;99.90
9564;DHT22;4820;50.870;4.702;2023-02-18T05:25:04;10.40;99.90
9564;DHT22;4820;50.870;4.702;2023-02-18T05:27:30;10.40;99.90
9564;DHT22;4820;50.870;4.702;2023-02-18T05:29:55;10.40;99.90
9564;DHT22;4820;50.870;4.702;2023-02-18T05:32:21;10.40;99.90
9564;DHT22;4820;50.870;4.702;2023-02-18T05:34:47;10.40;99.90
9564;DHT22;4820;50.870;4.702;2023-02-18T05:37:13;10.30;99.90
9564;DHT22;4820;50.870;4.702;2023-02-18T05:39:39;10.30;99.90
9564;DHT22;4820;50.870;4.702;2023-02-18T05:42:05;10.30;99.90
9564;DHT22;4820;50.870;4.702;2023-02-18T05:44:31;10.20;99.90
9564;DHT22;4820;50.870;4.702;2023-02-18T05:47:03;10.30;99.90
9564;DHT22;4820;50.870;4.702;2023-02-18T05:49:31;10.20;99.90
9564;DHT22;4820;50.870;4.702;2023-02-18T05:51:57;10.20;99.90
9564;DHT22;4820;50.870;4.702;2023-02-18T05:54:23;10.20;99.90
9564;DHT22;4820;50.870;4.702;2023-02-18T05:56:49;10.20;99.90
9564;DHT22;4820;50.870;4.702;2023-02-18T05:59:15;10.20;99.90
9564;DHT22;4820;50.870;4.702;2023-02-18T06:01:40;10.20;99.90
9564;DHT22;4820;50.870;4.702;2023-02-18T06:04:06;10.20;99.90
9564;DHT22;4820;50.870;4.702;2023-02-18T06:06:32;10.30;99.90
9564;DHT22;4820;50.870;4.702;2023-02-18T06:08:57;10.30;99.90
9564;DHT22;4820;50.870;4.702;2023-02-18T06:11:23;10.30;99.90
9564;DHT22;4820;50.870;4.702;2023-02-18T06:13:49;10.30;99.90
9564;DHT22;4820;50.870;4.702;2023-02-18T06:16:14;10.40;99.90
9564;DHT22;4820;50.870;4.702;2023-02-18T06:18:40;10.40;99.90
9564;DHT22;4820;50.870;4.702;2023-02-18T06:21:05;10.50;99.90
9564;DHT22;4820;50.870;4.702;2023-02-18T06:23:31;10.50;99.90
9564;DHT22;4820;50.870;4.702;2023-02-18T06:25:57;10.50;99.90
9564;DHT22;4820;50.870;4.702;2023-02-18T06:28:22;10.50;99.90
9564;DHT22;4820;50.870;4.702;2023-02-18T06:30:49;10.50;99.90
9564;DHT22;4820;50.870;4.702;2023-02-18T06:33:15;10.50;99.90
9564;DHT22;4820;50.870;4.702;2023-02-18T06:35:41;10.60;99.90
9564;DHT22;4820;50.870;4.702;2023-02-18T06:38:07;10.50;99.90
9564;DHT22;4820;50.870;4.702;2023-02-18T06:40:33;10.60;99.90
9564;DHT22;4820;50.870;4.702;2023-02-18T06:42:58;10.60;99.90
9564;DHT22;4820;50.870;4.702;2023-02-18T06:45:24;10.60;99.90
9564;DHT22;4820;50.870;4.702;2023-02-18T06:47:50;10.60;99.90
9564;DHT22;4820;50.870;4.702;2023-02-18T06:50:15;10.60;99.90
9564;DHT22;4820;50.870;4.702;2023-02-18T06:52:41;10.60;99.90
9564;DHT22;4820;50.870;4.702;2023-02-18T06:55:08;10.60;99.90
9564;DHT22;4820;50.870;4.702;2023-02-18T06:57:34;10.60;99.90
9564;DHT22;4820;50.870;4.702;2023-02-18T06:59:59;10.50;99.90
9564;DHT22;4820;50.870;4.702;2023-02-18T07:02:26;10.60;99.90
9564;DHT22;4820;50.870;4.702;2023-02-18T07:04:52;10.50;99.90
9564;DHT22;4820;50.870;4.702;2023-02-18T07:07:17;10.50;99.90
9564;DHT22;4820;50.870;4.702;2023-02-18T07:09:43;10.50;99.90
9564;DHT22;4820;50.870;4.702;2023-02-18T07:12:09;10.50;99.90
9564;DHT22;4820;50.870;4.702;2023-02-18T07:14:34;10.50;99.90
9564;DHT22;4820;50.870;4.702;2023-02-18T07:17:00;10.50;99.90
9564;DHT22;4820;50.870;4.702;2023-02-18T07:19:25;10.50;99.90
9564;DHT22;4820;50.870;4.702;2023-02-18T07:21:51;10.50;99.90
9564;DHT22;4820;50.870;4.702;2023-02-18T07:24:18;10.50;99.90
9564;DHT22;4820;50.870;4.702;2023-02-18T07:26:44;10.50;99.90
9564;DHT22;4820;50.870;4.702;2023-02-18T07:29:09;10.50;99.90
9564;DHT22;4820;50.870;4.702;2023-02-18T07:31:35;10.50;99.90
9564;DHT22;4820;50.870;4.702;2023-02-18T07:34:03;10.50;99.90
9564;DHT22;4820;50.870;4.702;2023-02-18T07:36:28;10.50;99.90
9564;DHT22;4820;50.870;4.702;2023-02-18T07:38:54;10.50;99.90
9564;DHT22;4820;50.870;4.702;2023-02-18T07:41:21;10.50;99.90
9564;DHT22;4820;50.870;4.702;2023-02-18T07:43:48;10.50;99.90
9564;DHT22;4820;50.870;4.702;2023-02-18T07:46:14;10.50;99.90
9564;DHT22;4820;50.870;4.702;2023-02-18T07:48:40;10.50;99.90
9564;DHT22;4820;50.870;4.702;2023-02-18T07:51:08;10.50;99.90
9564;DHT22;4820;50.870;4.702;2023-02-18T07:53:35;10.50;99.90
9564;DHT22;4820;50.870;4.702;2023-02-18T07:56:01;10.60;99.90
9564;DHT22;4820;50.870;4.702;2023-02-18T07:58:32;10.50;99.90
9564;DHT22;4820;50.870;4.702;2023-02-18T08:00:59;10.50;99.90
9564;DHT22;4820;50.870;4.702;2023-02-18T08:03:27;10.50;99.90
9564;DHT22;4820;50.870;4.702;2023-02-18T08:05:53;10.50;99.90
9564;DHT22;4820;50.870;4.702;2023-02-18T08:08:25;10.60;99.90
9564;DHT22;4820;50.870;4.702;2023-02-18T08:10:53;10.60;99.90
9564;DHT22;4820;50.870;4.702;2023-02-18T08:13:19;10.60;99.90
9564;DHT22;4820;50.870;4.702;2023-02-18T08:15:44;10.70;99.90
9564;DHT22;4820;50.870;4.702;2023-02-18T08:18:19;10.70;99.90
9564;DHT22;4820;50.870;4.702;2023-02-18T08:20:45;10.70;99.90
9564;DHT22;4820;50.870;4.702;2023-02-18T08:23:12;10.80;99.90
9564;DHT22;4820;50.870;4.702;2023-02-18T08:25:38;10.80;99.90
9564;DHT22;4820;50.870;4.702;2023-02-18T08:28:04;10.70;99.90
9564;DHT22;4820;50.870;4.702;2023-02-18T08:30:30;10.80;99.90
9564;DHT22;4820;50.870;4.702;2023-02-18T08:32:55;10.80;99.90
9564;DHT22;4820;50.870;4.702;2023-02-18T08:35:21;10.80;99.90
9564;DHT22;4820;50.870;4.702;2023-02-18T08:37:47;10.80;99.90
9564;DHT22;4820;50.870;4.702;2023-02-18T08:40:13;10.90;99.90
9564;DHT22;4820;50.870;4.702;2023-02-18T08:42:39;10.90;99.90
9564;DHT22;4820;50.870;4.702;2023-02-18T08:45:05;10.90;99.90
9564;DHT22;4820;50.870;4.702;2023-02-18T08:47:31;10.90;99.90
9564;DHT22;4820;50.870;4.702;2023-02-18T08:49:57;10.90;99.90
9564;DHT22;4820;50.870;4.702;2023-02-18T08:52:22;11.00;99.90
9564;DHT22;4820;50.870;4.702;2023-02-18T08:54:48;11.00;99.90
9564;DHT22;4820;50.870;4.702;2023-02-18T08:57:14;11.00;99.90
9564;DHT22;4820;50.870;4.702;2023-02-18T08:59:39;11.00;99.90
9564;DHT22;4820;50.870;4.702;2023-02-18T09:02:05;11.00;99.90
9564;DHT22;4820;50.870;4.702;2023-02-18T09:04:32;11.00;99.90
9564;DHT22;4820;50.870;4.702;2023-02-18T09:06:58;11.00;99.90
9564;DHT22;4820;50.870;4.702;2023-02-18T09:09:23;11.00;99.90
9564;DHT22;4820;50.870;4.702;2023-02-18T09:11:49;11.00;99.90
9564;DHT22;4820;50.870;4.702;2023-02-18T09:14:15;11.00;99.90
9564;DHT22;4820;50.870;4.702;2023-02-18T09:16:41;11.10;99.90
9564;DHT22;4820;50.870;4.702;2023-02-18T09:19:07;11.10;99.90
9564;DHT22;4820;50.870;4.702;2023-02-18T09:21:33;11.20;99.90
9564;DHT22;4820;50.870;4.702;2023-02-18T09:23:58;11.20;99.90
9564;DHT22;4820;50.870;4.702;2023-02-18T09:26:25;11.20;99.90
9564;DHT22;4820;50.870;4.702;2023-02-18T09:28:53;11.20;99.90
9564;DHT22;4820;50.870;4.702;2023-02-18T09:31:24;11.10;99.90
9564;DHT22;4820;50.870;4.702;2023-02-18T09:33:57;11.10;99.90
9564;DHT22;4820;50.870;4.702;2023-02-18T09:36:24;11.10;99.90
9564;DHT22;4820;50.870;4.702;2023-02-18T09:38:50;11.10;99.90
9564;DHT22;4820;50.870;4.702;2023-02-18T09:43:58;11.20;99.90
9564;DHT22;4820;50.870;4.702;2023-02-18T09:46:33;11.20;99.90
9564;DHT22;4820;50.870;4.702;2023-02-18T09:49:06;11.10;99.90
9564;DHT22;4820;50.870;4.702;2023-02-18T09:51:36;11.20;99.90
9564;DHT22;4820;50.870;4.702;2023-02-18T09:54:02;11.30;99.90
9564;DHT22;4820;50.870;4.702;2023-02-18T09:56:32;11.30;99.90
9564;DHT22;4820;50.870;4.702;2023-02-18T09:59:03;11.30;99.90
9564;DHT22;4820;50.870;4.702;2023-02-18T10:01:31;11.30;99.90
9564;DHT22;4820;50.870;4.702;2023-02-18T10:04:01;11.30;99.90
9564;DHT22;4820;50.870;4.702;2023-02-18T10:06:32;11.30;99.90
9564;DHT22;4820;50.870;4.702;2023-02-18T10:09:02;11.30;99.90
9564;DHT22;4820;50.870;4.702;2023-02-18T10:11:40;11.30;99.90
9564;DHT22;4820;50.870;4.702;2023-02-18T10:14:11;11.20;99.90
9564;DHT22;4820;50.870;4.702;2023-02-18T10:16:38;11.20;99.90
9564;DHT22;4820;50.870;4.702;2023-02-18T10:21:37;11.30;99.90
9564;DHT22;4820;50.870;4.702;2023-02-18T10:24:05;11.30;99.90
9564;DHT22;4820;50.870;4.702;2023-02-18T10:26:35;11.20;99.90
9564;DHT22;4820;50.870;4.702;2023-02-18T10:29:01;11.20;99.90
9564;DHT22;4820;50.870;4.702;2023-02-18T10:31:34;11.30;99.90
9564;DHT22;4820;50.870;4.702;2023-02-18T10:37:00;11.30;99.90
9564;DHT22;4820;50.870;4.702;2023-02-18T10:47:33;11.40;99.90
9564;DHT22;4820;50.870;4.702;2023-02-18T10:50:52;11.40;99.90
9564;DHT22;4820;50.870;4.702;2023-02-18T10:53:18;11.40;99.90
9564;DHT22;4820;50.870;4.702;2023-02-18T10:55:48;11.40;99.90
9564;DHT22;4820;50.870;4.702;2023-02-18T11:00:51;11.40;99.90
9564;DHT22;4820;50.870;4.702;2023-02-18T11:03:35;11.50;99.90
9564;DHT22;4820;50.870;4.702;2023-02-18T11:06:03;11.50;99.90
9564;DHT22;4820;50.870;4.702;2023-02-18T11:08:35;11.50;99.90
9564;DHT22;4820;50.870;4.702;2023-02-18T11:11:21;11.60;99.90
9564;DHT22;4820;50.870;4.702;2023-02-18T11:13:57;11.60;99.90
9564;DHT22;4820;50.870;4.702;2023-02-18T11:16:36;11.70;99.90
9564;DHT22;4820;50.870;4.702;2023-02-18T11:19:02;11.70;99.90
9564;DHT22;4820;50.870;4.702;2023-02-18T11:21:36;11.70;99.90
9564;DHT22;4820;50.870;4.702;2023-02-18T11:24:09;11.70;99.90
9564;DHT22;4820;50.870;4.702;2023-02-18T11:26:36;11.60;99.90
9564;DHT22;4820;50.870;4.702;2023-02-18T11:29:24;11.60;99.90
9564;DHT22;4820;50.870;4.702;2023-02-18T11:31:55;11.60;99.90
9564;DHT22;4820;50.870;4.702;2023-02-18T11:34:23;11.60;99.90
9564;DHT22;4820;50.870;4.702;2023-02-18T11:36:51;11.60;99.90
9564;DHT22;4820;50.870;4.702;2023-02-18T11:39:27;11.60;99.90
9564;DHT22;4820;50.870;4.702;2023-02-18T11:41:56;11.70;99.90
9564;DHT22;4820;50.870;4.702;2023-02-18T11:44:30;11.70;99.90
9564;DHT22;4820;50.870;4.702;2023-02-18T11:49:41;11.70;99.90
9564;DHT22;4820;50.870;4.702;2023-02-18T11:52:14;11.70;99.90
9564;DHT22;4820;50.870;4.702;2023-02-18T11:54:40;11.70;99.90
9564;DHT22;4820;50.870;4.702;2023-02-18T11:57:10;11.80;99.90
9564;DHT22;4820;50.870;4.702;2023-02-18T11:59:38;11.80;99.90
9564;DHT22;4820;50.870;4.702;2023-02-18T12:04:36;11.80;99.90
9564;DHT22;4820;50.870;4.702;2023-02-18T12:09:43;11.80;99.90
9564;DHT22;4820;50.870;4.702;2023-02-18T12:12:57;11.80;99.90
9564;DHT22;4820;50.870;4.702;2023-02-18T12:15:03;11.80;99.90
9564;DHT22;4820;50.870;4.702;2023-02-18T12:20:23;11.90;99.90
9564;DHT22;4820;50.870;4.702;2023-02-18T12:25:39;11.90;99.90
9564;DHT22;4820;50.870;4.702;2023-02-18T12:42:16;12.00;99.90
9564;DHT22;4820;50.870;4.702;2023-02-18T12:56:21;12.00;99.90
9564;DHT22;4820;50.870;4.702;2023-02-18T13:01:44;12.10;99.90
9564;DHT22;4820;50.870;4.702;2023-02-18T13:04:22;12.10;99.90
9564;DHT22;4820;50.870;4.702;2023-02-18T13:06:56;12.00;99.90
9564;DHT22;4820;50.870;4.702;2023-02-18T13:12:23;12.00;99.90
9564;DHT22;4820;50.870;4.702;2023-02-18T13:15:01;12.00;99.90
9564;DHT22;4820;50.870;4.702;2023-02-18T13:17:33;12.00;99.90
9564;DHT22;4820;50.870;4.702;2023-02-18T13:20:20;11.90;99.90
9564;DHT22;4820;50.870;4.702;2023-02-18T13:22:47;11.90;99.90
9564;DHT22;4820;50.870;4.702;2023-02-18T13:25:16;11.80;99.90
9564;DHT22;4820;50.870;4.702;2023-02-18T13:39:13;11.70;99.90
9564;DHT22;4820;50.870;4.702;2023-02-18T13:41:47;11.60;99.90
9564;DHT22;4820;50.870;4.702;2023-02-18T13:46:53;11.50;99.90
9564;DHT22;4820;50.870;4.702;2023-02-18T13:49:31;11.50;99.90
9564;DHT22;4820;50.870;4.702;2023-02-18T13:51:58;11.60;99.90
9564;DHT22;4820;50.870;4.702;2023-02-18T13:54:28;11.50;99.90
9564;DHT22;4820;50.870;4.702;2023-02-18T13:59:40;11.50;99.90
9564;DHT22;4820;50.870;4.702;2023-02-18T14:05:13;11.50;99.90
9564;DHT22;4820;50.870;4.702;2023-02-18T14:07:51;11.40;99.90
9564;DHT22;4820;50.870;4.702;2023-02-18T14:22:55;11.50;99.90
9564;DHT22;4820;50.870;4.702;2023-02-18T14:25:26;11.50;99.90
9564;DHT22;4820;50.870;4.702;2023-02-18T14:30:47;11.40;99.90
9564;DHT22;4820;50.870;4.702;2023-02-18T14:33:14;11.40;99.90
9564;DHT22;4820;50.870;4.702;2023-02-18T14:36:21;11.30;99.90
9564;DHT22;4820;50.870;4.702;2023-02-18T14:39:02;11.40;99.90
9564;DHT22;4820;50.870;4.702;2023-02-18T14:41:54;11.40;99.90
9564;DHT22;4820;50.870;4.702;2023-02-18T14:49:59;11.50;99.90
9564;DHT22;4820;50.870;4.702;2023-02-18T14:52:29;11.50;99.90
9564;DHT22;4820;50.870;4.702;2023-02-18T14:54:56;11.50;99.90
9564;DHT22;4820;50.870;4.702;2023-02-18T14:57:42;11.50;99.90
9564;DHT22;4820;50.870;4.702;2023-02-18T15:00:20;11.50;99.90
9564;DHT22;4820;50.870;4.702;2023-02-18T15:02:52;11.60;99.90
9564;DHT22;4820;50.870;4.702;2023-02-18T15:05:23;11.50;99.90
9564;DHT22;4820;50.870;4.702;2023-02-18T15:07:56;11.60;99.90
9564;DHT22;4820;50.870;4.702;2023-02-18T15:10:26;11.60;99.90
9564;DHT22;4820;50.870;4.702;2023-02-18T15:12:53;11.60;99.90
9564;DHT22;4820;50.870;4.702;2023-02-18T15:15:19;11.50;99.90
9564;DHT22;4820;50.870;4.702;2023-02-18T15:17:47;11.50;99.90
9564;DHT22;4820;50.870;4.702;2023-02-18T15:20:14;11.60;99.90
9564;DHT22;4820;50.870;4.702;2023-02-18T15:22:41;11.60;99.90
9564;DHT22;4820;50.870;4.702;2023-02-18T15:25:10;11.70;99.90
9564;DHT22;4820;50.870;4.702;2023-02-18T15:27:40;11.70;99.90
9564;DHT22;4820;50.870;4.702;2023-02-18T15:32:54;11.70;99.90
9564;DHT22;4820;50.870;4.702;2023-02-18T15:35:22;11.70;99.90
9564;DHT22;4820;50.870;4.702;2023-02-18T15:37:53;11.60;99.90
9564;DHT22;4820;50.870;4.702;2023-02-18T15:40:22;11.60;99.90
9564;DHT22;4820;50.870;4.702;2023-02-18T15:42:51;11.60;99.90
9564;DHT22;4820;50.870;4.702;2023-02-18T15:45:22;11.60;99.90
9564;DHT22;4820;50.870;4.702;2023-02-18T15:47:53;11.60;99.90
9564;DHT22;4820;50.870;4.702;2023-02-18T15:50:34;11.60;99.90
9564;DHT22;4820;50.870;4.702;2023-02-18T15:53:07;11.60;99.90
9564;DHT22;4820;50.870;4.702;2023-02-18T15:55:36;11.60;99.90
9564;DHT22;4820;50.870;4.702;2023-02-18T15:58:06;11.50;99.90
9564;DHT22;4820;50.870;4.702;2023-02-18T16:00:46;11.60;99.90
9564;DHT22;4820;50.870;4.702;2023-02-18T16:03:18;11.60;99.90
9564;DHT22;4820;50.870;4.702;2023-02-18T16:05:45;11.50;99.90
9564;DHT22;4820;50.870;4.702;2023-02-18T16:08:29;11.50;99.90
9564;DHT22;4820;50.870;4.702;2023-02-18T16:10:58;11.50;99.90
9564;DHT22;4820;50.870;4.702;2023-02-18T16:13:25;11.50;99.90
9564;DHT22;4820;50.870;4.702;2023-02-18T16:15:51;11.50;99.90
9564;DHT22;4820;50.870;4.702;2023-02-18T16:21:03;11.50;99.90
9564;DHT22;4820;50.870;4.702;2023-02-18T16:23:43;11.50;99.90
9564;DHT22;4820;50.870;4.702;2023-02-18T16:26:27;11.50;99.90
9564;DHT22;4820;50.870;4.702;2023-02-18T16:28:53;11.50;99.90
9564;DHT22;4820;50.870;4.702;2023-02-18T16:31:20;11.50;99.90
9564;DHT22;4820;50.870;4.702;2023-02-18T16:33:47;11.40;99.90
9564;DHT22;4820;50.870;4.702;2023-02-18T16:36:14;11.50;99.90
9564;DHT22;4820;50.870;4.702;2023-02-18T16:38:41;11.50;99.90
9564;DHT22;4820;50.870;4.702;2023-02-18T16:41:09;11.50;99.90
9564;DHT22;4820;50.870;4.702;2023-02-18T16:43:35;11.50;99.90
9564;DHT22;4820;50.870;4.702;2023-02-18T16:46:12;11.50;99.90
9564;DHT22;4820;50.870;4.702;2023-02-18T16:48:40;11.40;99.90
9564;DHT22;4820;50.870;4.702;2023-02-18T16:51:12;11.40;99.90
9564;DHT22;4820;50.870;4.702;2023-02-18T16:53:39;11.50;99.90
9564;DHT22;4820;50.870;4.702;2023-02-18T16:56:11;11.50;99.90
9564;DHT22;4820;50.870;4.702;2023-02-18T16:58:37;11.50;99.90
9564;DHT22;4820;50.870;4.702;2023-02-18T17:01:03;11.50;99.90
9564;DHT22;4820;50.870;4.702;2023-02-18T17:03:28;11.50;99.90
9564;DHT22;4820;50.870;4.702;2023-02-18T17:05:54;11.40;99.90
9564;DHT22;4820;50.870;4.702;2023-02-18T17:08:25;11.40;99.90
9564;DHT22;4820;50.870;4.702;2023-02-18T17:10:53;11.40;99.90
9564;DHT22;4820;50.870;4.702;2023-02-18T17:13:25;11.40;99.90
9564;DHT22;4820;50.870;4.702;2023-02-18T17:15:52;11.40;99.90
9564;DHT22;4820;50.870;4.702;2023-02-18T17:18:19;11.40;99.90
9564;DHT22;4820;50.870;4.702;2023-02-18T17:20:45;11.40;99.90
9564;DHT22;4820;50.870;4.702;2023-02-18T17:23:14;11.40;99.90
9564;DHT22;4820;50.870;4.702;2023-02-18T17:25:40;11.40;99.90
9564;DHT22;4820;50.870;4.702;2023-02-18T17:28:06;11.40;99.90
9564;DHT22;4820;50.870;4.702;2023-02-18T17:30:36;11.40;99.90
9564;DHT22;4820;50.870;4.702;2023-02-18T17:33:03;11.40;99.90
9564;DHT22;4820;50.870;4.702;2023-02-18T17:35:29;11.30;99.90
9564;DHT22;4820;50.870;4.702;2023-02-18T17:37:56;11.30;99.90
9564;DHT22;4820;50.870;4.702;2023-02-18T17:40:23;11.20;99.90
9564;DHT22;4820;50.870;4.702;2023-02-18T17:42:49;11.20;99.90
9564;DHT22;4820;50.870;4.702;2023-02-18T17:45:35;11.20;99.90
9564;DHT22;4820;50.870;4.702;2023-02-18T17:48:01;11.20;99.90
9564;DHT22;4820;50.870;4.702;2023-02-18T17:50:29;11.10;99.90
9564;DHT22;4820;50.870;4.702;2023-02-18T17:52:55;11.20;99.90
9564;DHT22;4820;50.870;4.702;2023-02-18T17:55:30;11.20;99.90
9564;DHT22;4820;50.870;4.702;2023-02-18T17:57:56;11.20;99.90
9564;DHT22;4820;50.870;4.702;2023-02-18T18:00:32;11.20;99.90
9564;DHT22;4820;50.870;4.702;2023-02-18T18:02:58;11.20;99.90
9564;DHT22;4820;50.870;4.702;2023-02-18T18:05:29;11.20;99.90
9564;DHT22;4820;50.870;4.702;2023-02-18T18:07:56;11.20;99.90
9564;DHT22;4820;50.870;4.702;2023-02-18T18:10:23;11.20;99.90
9564;DHT22;4820;50.870;4.702;2023-02-18T18:12:56;11.20;99.90
9564;DHT22;4820;50.870;4.702;2023-02-18T18:15:28;11.20;99.90
9564;DHT22;4820;50.870;4.702;2023-02-18T18:17:56;11.20;99.90
9564;DHT22;4820;50.870;4.702;2023-02-18T18:20:23;11.20;99.90
9564;DHT22;4820;50.870;4.702;2023-02-18T18:22:51;11.20;99.90
9564;DHT22;4820;50.870;4.702;2023-02-18T18:25:24;11.20;99.90
9564;DHT22;4820;50.870;4.702;2023-02-18T18:27:50;11.20;99.90
9564;DHT22;4820;50.870;4.702;2023-02-18T18:30:23;11.20;99.90
9564;DHT22;4820;50.870;4.702;2023-02-18T18:32:49;11.20;99.90
9564;DHT22;4820;50.870;4.702;2023-02-18T18:35:34;11.20;99.90
9564;DHT22;4820;50.870;4.702;2023-02-18T18:38:01;11.20;99.90
9564;DHT22;4820;50.870;4.702;2023-02-18T18:40:29;11.20;99.90
9564;DHT22;4820;50.870;4.702;2023-02-18T18:42:56;11.20;99.90
9564;DHT22;4820;50.870;4.702;2023-02-18T18:45:27;11.20;99.90
9564;DHT22;4820;50.870;4.702;2023-02-18T18:47:53;11.10;99.90